Time;durP1;ratioP1;P1;durP2;ratioP2;P2;SDS_P1;SDS_P2;PMS_P1;PMS_P2;Temp;Humidity;BMP_temperature;BMP_pressure;BME280_temperature;BME280_humidity;BME280_pressure;Samples;Min_cycle;Max_cycle;Signal;HPM_P1;HPM_P2
2023/12/24 00:00:24;;;;;;;2.83;2.08;;;;;;;;;;5097454;28;20676;-67
2023/12/24 00:02:52;;;;;;;2.75;1.98;;;;;;;;;;5097460;28;20269;-65
2023/12/24 00:05:20;;;;;;;2.92;2.00;;;;;;;;;;5097461;28;20645;-67
2023/12/24 00:07:47;;;;;;;2.83;2.00;;;;;;;;;;5097773;28;20203;-66
2023/12/24 00:10:15;;;;;;;2.10;1.83;;;;;;;;;;5097268;28;20239;-67
2023/12/24 00:12:43;;;;;;;2.60;1.60;;;;;;;;;;5097389;28;20253;-67
2023/12/24 00:15:11;;;;;;;3.08;1.83;;;;;;;;;;5097441;28;20302;-65
2023/12/24 00:17:39;;;;;;;2.40;2.05;;;;;;;;;;5097200;28;20622;-66
2023/12/24 00:20:06;;;;;;;2.58;1.83;;;;;;;;;;5097410;28;20207;-68
2023/12/24 00:22:33;;;;;;;2.50;1.73;;;;;;;;;;5096907;28;20512;-65
2023/12/24 00:25:01;;;;;;;2.05;1.73;;;;;;;;;;5099190;28;20215;-65
2023/12/24 00:27:29;;;;;;;1.98;1.50;;;;;;;;;;5101150;28;20699;-67
2023/12/24 00:29:57;;;;;;;2.42;1.77;;;;;;;;;;5101913;28;20226;-67
2023/12/24 00:32:25;;;;;;;1.60;1.45;;;;;;;;;;5101569;28;20235;-65
2023/12/24 00:34:53;;;;;;;2.30;1.85;;;;;;;;;;5101096;28;20286;-65
2023/12/24 00:37:20;;;;;;;1.27;1.17;;;;;;;;;;5101300;28;20200;-67
2023/12/24 00:39:48;;;;;;;2.15;1.55;;;;;;;;;;5101080;28;20200;-67
2023/12/24 00:42:15;;;;;;;1.90;1.50;;;;;;;;;;5100994;28;20204;-66
2023/12/24 00:44:43;;;;;;;1.42;1.30;;;;;;;;;;5100851;28;20264;-67
2023/12/24 00:47:12;;;;;;;2.20;1.50;;;;;;;;;;5100215;28;20208;-65
2023/12/24 00:49:40;;;;;;;1.80;1.52;;;;;;;;;;5100846;28;20219;-67
2023/12/24 00:52:07;;;;;;;2.15;1.52;;;;;;;;;;5100731;28;20639;-65
2023/12/24 00:54:35;;;;;;;2.60;1.30;;;;;;;;;;5100969;28;20218;-67
2023/12/24 00:57:02;;;;;;;1.95;1.35;;;;;;;;;;5099941;28;20215;-67
2023/12/24 00:59:30;;;;;;;1.42;1.25;;;;;;;;;;5100157;28;20240;-67
2023/12/24 01:01:57;;;;;;;1.58;1.17;;;;;;;;;;5100467;28;20200;-67
2023/12/24 01:04:26;;;;;;;1.58;1.38;;;;;;;;;;5100658;28;20204;-67
2023/12/24 01:06:54;;;;;;;1.40;1.30;;;;;;;;;;5100731;28;20253;-65
2023/12/24 01:09:21;;;;;;;1.80;1.10;;;;;;;;;;5101072;28;20204;-67
2023/12/24 01:11:49;;;;;;;1.65;1.27;;;;;;;;;;5100766;28;20359;-68
2023/12/24 01:14:17;;;;;;;1.90;1.20;;;;;;;;;;5100964;28;20208;-65
2023/12/24 01:16:44;;;;;;;1.33;1.10;;;;;;;;;;5100357;28;20203;-65
2023/12/24 01:19:12;;;;;;;1.85;1.10;;;;;;;;;;5099948;28;20243;-65
2023/12/24 01:21:41;;;;;;;1.05;0.95;;;;;;;;;;5100561;28;20199;-65
2023/12/24 01:24:08;;;;;;;1.13;1.02;;;;;;;;;;5100655;28;20242;-67
2023/12/24 01:26:36;;;;;;;1.10;0.90;;;;;;;;;;5100627;28;20210;-65
2023/12/24 01:29:04;;;;;;;1.13;1.02;;;;;;;;;;5100126;28;20204;-65
2023/12/24 01:31:31;;;;;;;1.58;1.00;;;;;;;;;;5099982;28;20227;-65
2023/12/24 01:33:59;;;;;;;1.38;1.00;;;;;;;;;;5100070;28;20214;-65
2023/12/24 01:36:26;;;;;;;1.40;1.08;;;;;;;;;;5098992;28;20265;-66
2023/12/24 01:38:55;;;;;;;1.02;0.93;;;;;;;;;;5100002;28;20269;-65
2023/12/24 01:41:23;;;;;;;1.38;1.05;;;;;;;;;;5100171;28;20200;-65
2023/12/24 01:43:51;;;;;;;1.30;0.90;;;;;;;;;;5099845;28;20286;-65
2023/12/24 01:46:21;;;;;;;1.35;0.70;;;;;;;;;;5099960;28;20204;-66
2023/12/24 01:48:50;;;;;;;1.52;1.00;;;;;;;;;;5099826;28;20207;-65
2023/12/24 01:51:18;;;;;;;1.35;0.90;;;;;;;;;;5100132;28;20231;-65
2023/12/24 01:53:46;;;;;;;1.15;0.90;;;;;;;;;;5100148;28;20254;-65
2023/12/24 01:56:16;;;;;;;1.00;0.88;;;;;;;;;;5100020;28;20408;-67
2023/12/24 01:58:43;;;;;;;1.10;1.00;;;;;;;;;;5100051;28;20232;-65
2023/12/24 02:01:11;;;;;;;1.00;0.82;;;;;;;;;;5099710;28;20236;-67
2023/12/24 02:03:38;;;;;;;1.23;1.10;;;;;;;;;;5099726;28;20272;-67
2023/12/24 02:06:08;;;;;;;1.83;0.90;;;;;;;;;;5100039;28;20295;-65
2023/12/24 02:08:37;;;;;;;0.73;0.70;;;;;;;;;;5099762;28;20257;-67
2023/12/24 02:11:04;;;;;;;0.90;0.80;;;;;;;;;;5099027;28;20295;-65
2023/12/24 02:13:34;;;;;;;1.42;0.90;;;;;;;;;;5099692;28;20803;-67
2023/12/24 02:16:03;;;;;;;0.90;0.80;;;;;;;;;;5099770;28;20265;-65
2023/12/24 02:18:30;;;;;;;1.20;0.80;;;;;;;;;;5099731;28;20319;-67
2023/12/24 02:21:02;;;;;;;1.00;0.70;;;;;;;;;;5099370;28;20200;-67
2023/12/24 02:23:30;;;;;;;0.70;0.70;;;;;;;;;;5099264;28;20204;-65
2023/12/24 02:25:59;;;;;;;0.95;0.80;;;;;;;;;;5099495;28;20204;-65
2023/12/24 02:28:27;;;;;;;0.80;0.80;;;;;;;;;;5099479;28;20223;-65
2023/12/24 02:30:57;;;;;;;1.08;0.80;;;;;;;;;;5098593;28;20224;-65
2023/12/24 02:33:26;;;;;;;0.70;0.70;;;;;;;;;;5099294;28;20265;-67
2023/12/24 02:35:55;;;;;;;0.70;0.70;;;;;;;;;;5099331;28;20207;-67
2023/12/24 02:38:24;;;;;;;1.08;0.63;;;;;;;;;;5098906;28;20574;-67
2023/12/24 02:40:52;;;;;;;0.82;0.70;;;;;;;;;;5099018;28;20215;-65
2023/12/24 02:43:19;;;;;;;0.75;0.60;;;;;;;;;;5098712;28;20203;-65
2023/12/24 02:45:47;;;;;;;0.98;0.77;;;;;;;;;;5098820;28;20207;-65
2023/12/24 02:48:15;;;;;;;1.02;0.70;;;;;;;;;;5098650;28;20214;-66
2023/12/24 02:50:44;;;;;;;1.92;0.65;;;;;;;;;;5098629;28;20218;-66
2023/12/24 02:53:11;;;;;;;0.70;0.70;;;;;;;;;;5099002;28;20586;-67
2023/12/24 02:55:40;;;;;;;0.80;0.70;;;;;;;;;;5098937;28;20203;-65
2023/12/24 02:58:08;;;;;;;1.05;0.70;;;;;;;;;;5098349;28;20244;-65
2023/12/24 03:00:36;;;;;;;0.82;0.57;;;;;;;;;;5098792;28;20203;-65
2023/12/24 03:03:04;;;;;;;0.85;0.80;;;;;;;;;;5098850;28;20290;-65
2023/12/24 03:05:31;;;;;;;1.00;0.60;;;;;;;;;;5098500;28;20211;-67
2023/12/24 03:07:59;;;;;;;0.65;0.60;;;;;;;;;;5098676;28;20290;-67
2023/12/24 03:10:27;;;;;;;0.60;0.60;;;;;;;;;;5098475;28;20207;-67
2023/12/24 03:12:56;;;;;;;0.52;0.43;;;;;;;;;;5098277;28;20584;-66
2023/12/24 03:15:24;;;;;;;0.70;0.63;;;;;;;;;;5090435;28;20205;-65
2023/12/24 03:17:51;;;;;;;0.77;0.60;;;;;;;;;;5098637;28;20488;-65
2023/12/24 03:20:19;;;;;;;0.80;0.50;;;;;;;;;;5098305;28;20647;-65
2023/12/24 03:22:46;;;;;;;0.85;0.70;;;;;;;;;;5098346;28;20204;-68
2023/12/24 03:25:14;;;;;;;0.55;0.50;;;;;;;;;;5098610;28;20475;-66
2023/12/24 03:27:42;;;;;;;0.88;0.50;;;;;;;;;;5098492;28;20210;-66
2023/12/24 03:30:12;;;;;;;0.50;0.40;;;;;;;;;;5098560;28;20246;-66
2023/12/24 03:32:39;;;;;;;0.65;0.40;;;;;;;;;;5097962;28;20523;-66
2023/12/24 03:35:07;;;;;;;0.70;0.50;;;;;;;;;;5097873;28;20235;-66
2023/12/24 03:37:35;;;;;;;0.73;0.68;;;;;;;;;;5098158;28;20212;-66
2023/12/24 03:40:03;;;;;;;0.50;0.50;;;;;;;;;;5098165;28;20660;-66
2023/12/24 03:42:31;;;;;;;0.73;0.60;;;;;;;;;;5098164;28;20294;-66
2023/12/24 03:44:58;;;;;;;0.50;0.50;;;;;;;;;;5097673;28;20668;-66
2023/12/24 03:47:27;;;;;;;0.55;0.50;;;;;;;;;;5098058;28;20200;-66
2023/12/24 03:49:55;;;;;;;0.82;0.50;;;;;;;;;;5097577;28;20596;-65
2023/12/24 03:52:23;;;;;;;0.60;0.60;;;;;;;;;;5097864;28;20292;-66
2023/12/24 03:54:51;;;;;;;0.70;0.70;;;;;;;;;;5097212;28;20225;-66
2023/12/24 03:57:19;;;;;;;0.50;0.50;;;;;;;;;;5097457;28;20585;-66
2023/12/24 03:59:46;;;;;;;0.80;0.70;;;;;;;;;;5096367;28;20239;-66
2023/12/24 04:02:14;;;;;;;0.70;0.50;;;;;;;;;;5097806;28;20515;-66
2023/12/24 04:04:47;;;;;;;0.50;0.50;;;;;;;;;;5097728;28;20214;-66
2023/12/24 04:07:16;;;;;;;0.60;0.50;;;;;;;;;;5097712;28;20202;-65
2023/12/24 04:09:44;;;;;;;1.35;0.50;;;;;;;;;;5097302;28;20511;-66
2023/12/24 04:12:12;;;;;;;0.50;0.50;;;;;;;;;;5097351;28;20227;-67
2023/12/24 04:14:40;;;;;;;0.40;0.40;;;;;;;;;;5097263;28;20247;-66
2023/12/24 04:17:08;;;;;;;0.50;0.40;;;;;;;;;;5097252;28;20558;-66
2023/12/24 04:19:35;;;;;;;0.85;0.60;;;;;;;;;;5097340;28;20591;-66
2023/12/24 04:22:04;;;;;;;0.55;0.52;;;;;;;;;;5097638;28;20200;-66
2023/12/24 04:24:33;;;;;;;1.13;0.60;;;;;;;;;;5097626;28;20211;-66
2023/12/24 04:27:01;;;;;;;0.47;0.40;;;;;;;;;;5097590;28;20204;-66
2023/12/24 04:29:29;;;;;;;0.75;0.60;;;;;;;;;;5097352;28;20264;-65
2023/12/24 04:31:56;;;;;;;0.50;0.50;;;;;;;;;;5097421;28;20312;-65
2023/12/24 04:34:24;;;;;;;0.40;0.40;;;;;;;;;;5096452;28;20294;-66
2023/12/24 04:36:52;;;;;;;0.50;0.40;;;;;;;;;;5097497;28;20272;-67
2023/12/24 04:39:21;;;;;;;0.38;0.38;;;;;;;;;;5097191;28;20211;-66
2023/12/24 04:41:49;;;;;;;0.60;0.40;;;;;;;;;;5097477;28;20215;-66
2023/12/24 04:44:16;;;;;;;0.43;0.40;;;;;;;;;;5097271;28;20211;-66
2023/12/24 04:46:45;;;;;;;0.50;0.40;;;;;;;;;;5096994;28;20214;-66
2023/12/24 04:49:12;;;;;;;0.32;0.32;;;;;;;;;;5097207;28;20302;-66
2023/12/24 04:51:40;;;;;;;0.57;0.47;;;;;;;;;;5097101;28;20227;-66
2023/12/24 04:54:08;;;;;;;0.30;0.30;;;;;;;;;;5097339;28;20588;-66
2023/12/24 04:56:37;;;;;;;0.40;0.40;;;;;;;;;;5097083;28;20204;-65
2023/12/24 04:59:04;;;;;;;0.40;0.32;;;;;;;;;;5096879;28;20309;-66
2023/12/24 05:01:31;;;;;;;0.40;0.32;;;;;;;;;;5096990;28;20211;-66
2023/12/24 05:03:59;;;;;;;0.75;0.52;;;;;;;;;;5097330;28;20204;-67
2023/12/24 05:06:29;;;;;;;0.57;0.50;;;;;;;;;;5096947;28;20211;-66
2023/12/24 05:08:56;;;;;;;0.32;0.30;;;;;;;;;;5096891;28;20254;-66
2023/12/24 05:11:23;;;;;;;0.52;0.47;;;;;;;;;;5099337;28;20535;-66
2023/12/24 05:13:52;;;;;;;0.57;0.50;;;;;;;;;;5100782;28;20203;-65
2023/12/24 05:16:19;;;;;;;0.40;0.40;;;;;;;;;;5100696;28;20203;-67
2023/12/24 05:18:47;;;;;;;0.40;0.40;;;;;;;;;;5100529;28;20204;-66
2023/12/24 05:21:15;;;;;;;0.55;0.40;;;;;;;;;;5100335;28;20203;-68
2023/12/24 05:23:43;;;;;;;0.38;0.38;;;;;;;;;;5100398;28;20200;-67
2023/12/24 05:26:10;;;;;;;0.40;0.35;;;;;;;;;;5100480;28;20214;-67
2023/12/24 05:28:37;;;;;;;0.40;0.40;;;;;;;;;;5100401;28;20216;-67
2023/12/24 05:31:06;;;;;;;0.57;0.32;;;;;;;;;;5100363;28;20261;-67
2023/12/24 05:33:34;;;;;;;0.38;0.30;;;;;;;;;;5100355;28;20235;-67
2023/12/24 05:36:01;;;;;;;0.40;0.40;;;;;;;;;;5100003;28;20214;-66
2023/12/24 05:38:28;;;;;;;0.30;0.30;;;;;;;;;;5100012;28;20211;-65
2023/12/24 05:40:55;;;;;;;0.50;0.43;;;;;;;;;;5100148;28;20203;-65
2023/12/24 05:43:23;;;;;;;0.50;0.50;;;;;;;;;;5099623;28;20211;-65
2023/12/24 05:45:50;;;;;;;0.43;0.40;;;;;;;;;;5100048;28;20212;-67
2023/12/24 05:48:19;;;;;;;0.40;0.40;;;;;;;;;;5100190;28;20203;-66
2023/12/24 05:50:46;;;;;;;0.30;0.30;;;;;;;;;;5099968;28;20204;-65
2023/12/24 05:53:14;;;;;;;0.40;0.40;;;;;;;;;;5099763;28;20302;-65
2023/12/24 05:55:41;;;;;;;0.50;0.50;;;;;;;;;;5100002;28;20208;-65
2023/12/24 05:58:08;;;;;;;0.35;0.30;;;;;;;;;;5099562;28;20243;-67
2023/12/24 06:00:35;;;;;;;0.40;0.40;;;;;;;;;;5099889;28;20203;-65
2023/12/24 06:03:03;;;;;;;0.60;0.47;;;;;;;;;;5100027;28;20206;-65
2023/12/24 06:05:31;;;;;;;0.35;0.32;;;;;;;;;;5099963;28;20204;-65
2023/12/24 06:07:59;;;;;;;0.40;0.40;;;;;;;;;;5100051;28;20208;-65
2023/12/24 06:10:26;;;;;;;0.35;0.35;;;;;;;;;;5099618;28;20204;-65
2023/12/24 06:12:54;;;;;;;0.43;0.40;;;;;;;;;;5099392;28;20224;-67
2023/12/24 06:15:21;;;;;;;0.40;0.32;;;;;;;;;;5099316;28;20204;-67
2023/12/24 06:17:48;;;;;;;0.60;0.40;;;;;;;;;;5099286;28;20204;-65
2023/12/24 06:20:15;;;;;;;0.30;0.30;;;;;;;;;;5099531;28;20216;-65
2023/12/24 06:22:44;;;;;;;0.30;0.30;;;;;;;;;;5098701;28;20208;-65
2023/12/24 06:25:12;;;;;;;0.85;0.38;;;;;;;;;;5099505;28;20211;-65
2023/12/24 06:27:39;;;;;;;0.32;0.32;;;;;;;;;;5099604;28;20211;-65
2023/12/24 06:30:07;;;;;;;0.40;0.40;;;;;;;;;;5099491;28;20203;-65
2023/12/24 06:32:34;;;;;;;0.90;0.38;;;;;;;;;;5098844;28;20246;-65
2023/12/24 06:35:01;;;;;;;0.30;0.30;;;;;;;;;;5099104;28;20553;-65
2023/12/24 06:37:29;;;;;;;0.38;0.38;;;;;;;;;;5098932;28;20627;-65
2023/12/24 06:39:58;;;;;;;0.40;0.40;;;;;;;;;;5098840;28;20212;-65
2023/12/24 06:42:25;;;;;;;0.43;0.43;;;;;;;;;;5098627;28;20490;-65
2023/12/24 06:44:53;;;;;;;0.40;0.40;;;;;;;;;;5098948;28;20306;-68
2023/12/24 06:47:20;;;;;;;0.40;0.40;;;;;;;;;;5099027;28;20211;-65
2023/12/24 06:49:47;;;;;;;0.68;0.30;;;;;;;;;;5098765;28;20212;-65
2023/12/24 06:52:15;;;;;;;0.40;0.40;;;;;;;;;;5098605;28;20297;-68
2023/12/24 06:54:42;;;;;;;0.40;0.30;;;;;;;;;;5098511;28;20203;-65
2023/12/24 06:57:11;;;;;;;0.75;0.40;;;;;;;;;;5098837;28;20598;-66
2023/12/24 06:59:38;;;;;;;0.50;0.40;;;;;;;;;;5098472;28;20308;-66
2023/12/24 07:02:05;;;;;;;0.40;0.40;;;;;;;;;;5098660;28;20211;-66
2023/12/24 07:04:33;;;;;;;0.40;0.40;;;;;;;;;;5098531;28;20604;-66
2023/12/24 07:07:00;;;;;;;0.65;0.30;;;;;;;;;;5098543;28;20207;-66
2023/12/24 07:09:27;;;;;;;0.40;0.40;;;;;;;;;;5098221;28;20203;-66
2023/12/24 07:11:55;;;;;;;1.27;0.40;;;;;;;;;;5098284;28;20212;-65
2023/12/24 07:14:23;;;;;;;0.38;0.38;;;;;;;;;;5098274;28;20228;-67
2023/12/24 07:16:51;;;;;;;0.30;0.30;;;;;;;;;;5098357;28;20257;-66
2023/12/24 07:19:18;;;;;;;0.40;0.40;;;;;;;;;;5098343;28;20204;-66
2023/12/24 07:21:46;;;;;;;0.35;0.35;;;;;;;;;;5097966;28;20203;-66
2023/12/24 07:24:13;;;;;;;0.50;0.50;;;;;;;;;;5097705;28;20269;-67
2023/12/24 07:26:40;;;;;;;0.40;0.40;;;;;;;;;;5097804;28;20203;-66
2023/12/24 07:29:07;;;;;;;0.50;0.45;;;;;;;;;;5098084;28;20203;-65
2023/12/24 07:31:36;;;;;;;0.43;0.25;;;;;;;;;;5097779;28;20203;-67
2023/12/24 07:34:04;;;;;;;0.40;0.28;;;;;;;;;;5097881;28;20246;-66
2023/12/24 07:36:31;;;;;;;0.57;0.40;;;;;;;;;;5098151;28;20204;-66
2023/12/24 07:38:58;;;;;;;0.50;0.40;;;;;;;;;;5097568;28;20203;-66
2023/12/24 07:41:26;;;;;;;0.45;0.45;;;;;;;;;;5097533;28;20214;-66
2023/12/24 07:43:53;;;;;;;0.38;0.35;;;;;;;;;;5097964;28;20203;-66
2023/12/24 07:46:21;;;;;;;0.30;0.30;;;;;;;;;;5097968;28;20530;-65
2023/12/24 07:48:50;;;;;;;0.50;0.30;;;;;;;;;;5097762;28;20302;-67
2023/12/24 07:51:17;;;;;;;0.30;0.30;;;;;;;;;;5097531;28;20215;-65
2023/12/24 07:53:44;;;;;;;0.35;0.30;;;;;;;;;;5096828;28;20227;-65
2023/12/24 07:56:11;;;;;;;0.22;0.22;;;;;;;;;;5097088;28;20204;-65
2023/12/24 07:58:39;;;;;;;0.30;0.30;;;;;;;;;;5097454;28;20318;-65
2023/12/24 08:01:06;;;;;;;0.30;0.30;;;;;;;;;;5097609;28;20211;-65
2023/12/24 08:03:33;;;;;;;0.40;0.40;;;;;;;;;;5097455;28;20218;-67
2023/12/24 08:06:02;;;;;;;0.30;0.30;;;;;;;;;;5097721;28;20276;-65
2023/12/24 08:08:30;;;;;;;0.40;0.30;;;;;;;;;;5097470;28;20246;-68
2023/12/24 08:10:57;;;;;;;0.40;0.35;;;;;;;;;;5096685;28;20222;-67
2023/12/24 08:13:24;;;;;;;0.40;0.30;;;;;;;;;;5097557;28;20220;-66
2023/12/24 08:15:52;;;;;;;0.38;0.38;;;;;;;;;;5097566;28;20285;-66
2023/12/24 08:18:19;;;;;;;0.30;0.30;;;;;;;;;;5097734;28;20211;-66
2023/12/24 08:20:47;;;;;;;0.30;0.30;;;;;;;;;;5097577;28;20203;-65
2023/12/24 08:23:16;;;;;;;0.30;0.30;;;;;;;;;;5096971;28;20310;-65
2023/12/24 08:25:44;;;;;;;0.65;0.25;;;;;;;;;;5097315;28;20624;-65
2023/12/24 08:28:12;;;;;;;0.30;0.30;;;;;;;;;;5096864;28;20229;-66
2023/12/24 08:30:40;;;;;;;0.43;0.30;;;;;;;;;;5097314;28;20536;-66
2023/12/24 08:33:07;;;;;;;0.30;0.30;;;;;;;;;;5096898;28;20269;-66
2023/12/24 08:35:34;;;;;;;0.38;0.30;;;;;;;;;;5097468;28;20214;-66
2023/12/24 08:38:03;;;;;;;0.30;0.30;;;;;;;;;;5097159;28;20257;-66
2023/12/24 08:40:32;;;;;;;0.28;0.28;;;;;;;;;;5097054;28;20203;-66
2023/12/24 08:42:59;;;;;;;0.30;0.30;;;;;;;;;;5097010;28;20210;-66
2023/12/24 08:45:27;;;;;;;0.28;0.28;;;;;;;;;;5097673;28;20211;-65
2023/12/24 08:47:55;;;;;;;0.30;0.30;;;;;;;;;;5100522;28;20215;-65
2023/12/24 08:50:22;;;;;;;0.32;0.32;;;;;;;;;;5100873;28;20208;-66
2023/12/24 08:52:49;;;;;;;0.30;0.30;;;;;;;;;;5100218;28;20204;-65
2023/12/24 08:55:17;;;;;;;0.20;0.20;;;;;;;;;;5099961;28;20222;-66
2023/12/24 08:57:46;;;;;;;0.32;0.30;;;;;;;;;;5100360;28;20299;-66
2023/12/24 09:00:14;;;;;;;0.30;0.30;;;;;;;;;;5101182;28;20212;-66
2023/12/24 09:02:41;;;;;;;0.30;0.30;;;;;;;;;;5100497;28;20214;-66
2023/12/24 09:05:09;;;;;;;0.30;0.30;;;;;;;;;;5101094;28;20521;-65
2023/12/24 09:07:36;;;;;;;0.30;0.30;;;;;;;;;;5100856;28;20204;-66
2023/12/24 09:10:04;;;;;;;0.28;0.28;;;;;;;;;;5100221;28;20215;-66
2023/12/24 09:12:32;;;;;;;0.30;0.30;;;;;;;;;;5100444;28;20207;-66
2023/12/24 09:15:00;;;;;;;0.40;0.30;;;;;;;;;;5100611;28;20574;-65
2023/12/24 09:17:28;;;;;;;0.30;0.20;;;;;;;;;;5100316;28;20581;-65
2023/12/24 09:19:55;;;;;;;0.22;0.22;;;;;;;;;;5100030;28;20598;-67
2023/12/24 09:22:23;;;;;;;0.30;0.30;;;;;;;;;;5099847;28;20214;-66
2023/12/24 09:24:50;;;;;;;0.30;0.25;;;;;;;;;;5100593;28;20221;-65
2023/12/24 09:27:17;;;;;;;0.20;0.20;;;;;;;;;;5100196;28;20226;-66
2023/12/24 09:29:44;;;;;;;0.25;0.25;;;;;;;;;;5099637;28;20215;-66
2023/12/24 09:32:13;;;;;;;0.20;0.20;;;;;;;;;;5100042;28;20210;-65
2023/12/24 09:34:41;;;;;;;0.40;0.40;;;;;;;;;;5099847;28;20227;-66
2023/12/24 09:37:08;;;;;;;0.20;0.20;;;;;;;;;;5100059;28;20654;-66
2023/12/24 09:39:35;;;;;;;0.20;0.20;;;;;;;;;;5099407;28;20491;-66
2023/12/24 09:42:03;;;;;;;0.20;0.20;;;;;;;;;;5099914;28;20211;-67
2023/12/24 09:44:30;;;;;;;0.28;0.28;;;;;;;;;;5099627;28;20242;-66
2023/12/24 09:46:58;;;;;;;0.28;0.28;;;;;;;;;;5100212;28;20211;-65
2023/12/24 09:49:26;;;;;;;0.30;0.20;;;;;;;;;;5099429;28;20211;-67
2023/12/24 09:51:55;;;;;;;0.30;0.30;;;;;;;;;;5100371;28;20219;-65
2023/12/24 09:54:22;;;;;;;2.60;0.40;;;;;;;;;;5099146;28;20235;-66
2023/12/24 09:56:49;;;;;;;0.40;0.30;;;;;;;;;;5098052;28;20211;-67
2023/12/24 09:59:17;;;;;;;0.20;0.20;;;;;;;;;;5099103;28;20227;-66
2023/12/24 10:01:45;;;;;;;2.75;0.43;;;;;;;;;;5099312;28;20204;-65
2023/12/24 10:04:13;;;;;;;2.05;0.20;;;;;;;;;;5099570;28;20200;-67
2023/12/24 10:06:55;;;;;;;0.43;0.30;;;;;;;;;;5098537;28;20243;-66
2023/12/24 10:09:22;;;;;;;0.20;0.20;;;;;;;;;;5099233;28;20286;-65
2023/12/24 10:12:04;;;;;;;0.35;0.30;;;;;;;;;;5098865;28;20278;-65
2023/12/24 10:14:31;;;;;;;1.20;0.30;;;;;;;;;;5098551;28;20267;-65
2023/12/24 10:17:00;;;;;;;0.55;0.25;;;;;;;;;;5099103;28;20487;-65
2023/12/24 10:19:28;;;;;;;0.85;0.25;;;;;;;;;;5099327;28;20210;-65
2023/12/24 10:22:04;;;;;;;0.63;0.30;;;;;;;;;;5098652;28;20214;-65
2023/12/24 10:24:32;;;;;;;0.35;0.22;;;;;;;;;;5098344;28;20227;-67
2023/12/24 10:27:06;;;;;;;0.22;0.20;;;;;;;;;;5098993;28;20290;-66
2023/12/24 10:29:34;;;;;;;0.82;0.38;;;;;;;;;;5098573;28;20652;-65
2023/12/24 10:32:01;;;;;;;0.40;0.28;;;;;;;;;;5098844;28;20214;-65
2023/12/24 10:34:30;;;;;;;0.47;0.30;;;;;;;;;;5098444;28;20235;-65
2023/12/24 10:36:58;;;;;;;0.63;0.30;;;;;;;;;;5098607;28;20203;-65
2023/12/24 10:39:28;;;;;;;0.30;0.30;;;;;;;;;;5098652;28;20621;-65
2023/12/24 10:41:56;;;;;;;0.63;0.20;;;;;;;;;;5098992;28;20581;-65
2023/12/24 10:44:23;;;;;;;0.25;0.20;;;;;;;;;;5098636;28;20585;-66
2023/12/24 10:46:50;;;;;;;0.30;0.30;;;;;;;;;;5099188;28;20208;-65
2023/12/24 10:49:18;;;;;;;0.43;0.20;;;;;;;;;;5098390;28;20211;-65
2023/12/24 10:51:46;;;;;;;1.30;0.22;;;;;;;;;;5098615;28;20207;-65
2023/12/24 10:54:15;;;;;;;1.08;0.30;;;;;;;;;;5098072;28;20223;-65
2023/12/24 10:56:52;;;;;;;0.50;0.32;;;;;;;;;;5098552;28;20215;-65
2023/12/24 10:59:24;;;;;;;0.93;0.20;;;;;;;;;;5098097;28;20230;-65
2023/12/24 11:01:52;;;;;;;0.20;0.20;;;;;;;;;;5098214;28;20247;-65
2023/12/24 11:04:38;;;;;;;0.40;0.30;;;;;;;;;;5098291;28;20199;-67
2023/12/24 11:07:06;;;;;;;0.35;0.20;;;;;;;;;;5098267;28;20204;-65
2023/12/24 11:09:45;;;;;;;0.50;0.30;;;;;;;;;;5097841;28;20214;-65
2023/12/24 11:12:27;;;;;;;1.67;0.30;;;;;;;;;;5098330;28;20242;-66
2023/12/24 11:14:54;;;;;;;0.20;0.20;;;;;;;;;;5098041;28;20322;-65
2023/12/24 11:17:37;;;;;;;0.73;0.40;;;;;;;;;;5098084;28;20204;-65
2023/12/24 11:20:24;;;;;;;0.30;0.20;;;;;;;;;;5097153;28;20537;-65
2023/12/24 11:23:10;;;;;;;0.30;0.30;;;;;;;;;;5097749;28;20259;-65
2023/12/24 11:25:38;;;;;;;0.20;0.20;;;;;;;;;;5097488;28;20458;-65
2023/12/24 11:28:07;;;;;;;1.35;0.20;;;;;;;;;;5097445;28;20285;-66
2023/12/24 11:30:49;;;;;;;0.68;0.32;;;;;;;;;;5096999;28;20619;-67
2023/12/24 11:33:35;;;;;;;1.25;0.20;;;;;;;;;;5097546;28;20207;-65
2023/12/24 11:36:04;;;;;;;1.15;0.20;;;;;;;;;;5097718;28;20211;-65
2023/12/24 11:38:40;;;;;;;0.68;0.30;;;;;;;;;;5097021;28;20537;-65
2023/12/24 11:41:07;;;;;;;0.77;0.35;;;;;;;;;;5097383;28;20250;-65
2023/12/24 11:43:36;;;;;;;1.70;0.47;;;;;;;;;;5097332;28;20272;-65
2023/12/24 11:46:04;;;;;;;0.82;0.30;;;;;;;;;;5097471;28;20203;-65
2023/12/24 11:48:32;;;;;;;1.00;0.30;;;;;;;;;;5096873;28;20204;-65
2023/12/24 11:51:06;;;;;;;0.85;0.20;;;;;;;;;;5096910;28;20215;-65
2023/12/24 11:53:34;;;;;;;1.45;0.28;;;;;;;;;;5096683;28;20298;-65
2023/12/24 11:56:05;;;;;;;1.85;0.28;;;;;;;;;;5096629;28;20235;-65
2023/12/24 11:58:32;;;;;;;1.25;0.70;;;;;;;;;;5096354;28;20243;-65
2023/12/24 12:01:02;;;;;;;1.13;0.38;;;;;;;;;;5096529;28;20211;-66
2023/12/24 12:03:29;;;;;;;1.30;0.20;;;;;;;;;;5097424;28;20242;-65
2023/12/24 12:05:56;;;;;;;0.45;0.28;;;;;;;;;;5096370;28;20211;-65
2023/12/24 12:08:24;;;;;;;1.65;0.47;;;;;;;;;;5097279;28;20207;-65
2023/12/24 12:10:51;;;;;;;1.35;0.25;;;;;;;;;;5096447;28;20208;-66
2023/12/24 12:13:19;;;;;;;0.80;0.47;;;;;;;;;;5096914;28;20214;-65
2023/12/24 12:15:46;;;;;;;0.95;0.40;;;;;;;;;;5097483;28;20504;-65
2023/12/24 12:18:16;;;;;;;1.45;0.50;;;;;;;;;;5096955;28;20207;-65
2023/12/24 12:20:44;;;;;;;3.47;1.20;;;;;;;;;;5096308;28;20211;-65
2023/12/24 12:23:11;;;;;;;1.63;1.20;;;;;;;;;;5096556;28;20208;-65
2023/12/24 12:25:38;;;;;;;2.05;1.08;;;;;;;;;;5096577;28;20211;-65
2023/12/24 12:28:06;;;;;;;3.15;1.17;;;;;;;;;;5096763;28;20211;-65
2023/12/24 12:30:33;;;;;;;1.98;1.00;;;;;;;;;;5096457;28;20200;-65
2023/12/24 12:33:01;;;;;;;2.40;1.40;;;;;;;;;;5096551;28;20204;-65
2023/12/24 12:35:30;;;;;;;3.00;1.00;;;;;;;;;;5096630;28;20223;-66
2023/12/24 12:37:57;;;;;;;2.28;1.35;;;;;;;;;;5096798;28;20214;-65
2023/12/24 12:40:25;;;;;;;2.30;1.20;;;;;;;;;;5096568;28;20204;-65
2023/12/24 12:42:52;;;;;;;2.38;1.27;;;;;;;;;;5096842;28;20203;-65
2023/12/24 12:45:20;;;;;;;4.82;1.90;;;;;;;;;;5095785;28;20214;-65
2023/12/24 12:47:47;;;;;;;1.70;1.10;;;;;;;;;;5096312;28;20203;-65
2023/12/24 12:50:14;;;;;;;3.35;1.20;;;;;;;;;;5095828;28;20204;-65
2023/12/24 12:52:44;;;;;;;3.28;1.38;;;;;;;;;;5096270;28;20203;-66
2023/12/24 12:55:12;;;;;;;1.98;1.20;;;;;;;;;;5096415;28;20227;-65
2023/12/24 12:57:41;;;;;;;2.63;1.48;;;;;;;;;;5096210;28;20290;-67
2023/12/24 13:00:10;;;;;;;3.80;1.27;;;;;;;;;;5095923;28;20269;-65
2023/12/24 13:02:38;;;;;;;3.63;1.23;;;;;;;;;;5096180;28;20208;-65
2023/12/24 13:05:07;;;;;;;1.95;1.48;;;;;;;;;;5096178;28;20268;-65
2023/12/24 13:07:35;;;;;;;4.90;1.55;;;;;;;;;;5096153;28;20278;-65
2023/12/24 13:10:04;;;;;;;5.10;1.70;;;;;;;;;;5095641;28;20716;-65
2023/12/24 13:12:31;;;;;;;3.90;1.30;;;;;;;;;;5096575;28;20574;-66
2023/12/24 13:14:59;;;;;;;2.40;1.40;;;;;;;;;;5096096;28;20227;-65
2023/12/24 13:17:27;;;;;;;3.00;1.75;;;;;;;;;;5096023;28;20210;-65
2023/12/24 13:19:55;;;;;;;3.13;1.20;;;;;;;;;;5095598;28;20196;-67
2023/12/24 13:22:24;;;;;;;2.55;1.20;;;;;;;;;;5095701;28;20204;-65
2023/12/24 13:24:53;;;;;;;4.47;1.60;;;;;;;;;;5095445;28;20238;-65
2023/12/24 13:27:22;;;;;;;5.60;2.08;;;;;;;;;;5095921;28;20250;-65
2023/12/24 13:29:49;;;;;;;1.73;1.25;;;;;;;;;;5095752;28;20212;-65
2023/12/24 13:32:16;;;;;;;3.45;1.58;;;;;;;;;;5097457;28;20213;-65
2023/12/24 13:34:44;;;;;;;5.85;1.40;;;;;;;;;;5099161;28;20238;-65
2023/12/24 13:37:12;;;;;;;3.03;1.48;;;;;;;;;;5099056;28;20257;-65
2023/12/24 13:39:40;;;;;;;3.63;1.13;;;;;;;;;;5099650;28;20196;-65
2023/12/24 13:42:07;;;;;;;2.72;1.48;;;;;;;;;;5100058;28;20208;-65
2023/12/24 13:44:39;;;;;;;1.95;1.17;;;;;;;;;;5099419;28;20601;-65
2023/12/24 13:47:07;;;;;;;2.72;1.40;;;;;;;;;;5099523;28;20204;-65
2023/12/24 13:49:34;;;;;;;3.10;1.20;;;;;;;;;;5099333;28;20250;-65
2023/12/24 13:52:03;;;;;;;3.42;1.33;;;;;;;;;;5098664;28;20600;-65
2023/12/24 13:54:30;;;;;;;2.67;1.35;;;;;;;;;;5099019;28;20235;-65
2023/12/24 13:56:57;;;;;;;2.22;1.40;;;;;;;;;;5099099;28;20208;-65
2023/12/24 13:59:25;;;;;;;2.03;1.15;;;;;;;;;;5098735;28;20258;-65
2023/12/24 14:01:54;;;;;;;3.00;0.90;;;;;;;;;;5098964;28;20214;-65
2023/12/24 14:04:21;;;;;;;2.25;1.10;;;;;;;;;;5098473;28;20204;-65
2023/12/24 14:06:48;;;;;;;4.05;1.10;;;;;;;;;;5098695;28;20208;-66
2023/12/24 14:09:15;;;;;;;1.85;1.20;;;;;;;;;;5099117;28;20768;-66
2023/12/24 14:11:43;;;;;;;3.25;1.17;;;;;;;;;;5098953;28;20204;-66
2023/12/24 14:14:10;;;;;;;3.95;1.05;;;;;;;;;;5099140;28;20215;-65
2023/12/24 14:16:38;;;;;;;2.63;0.98;;;;;;;;;;5098642;28;20653;-65
2023/12/24 14:19:06;;;;;;;1.75;1.15;;;;;;;;;;5098762;28;20715;-68
2023/12/24 14:21:34;;;;;;;2.75;1.05;;;;;;;;;;5098093;28;20220;-67
2023/12/24 14:24:01;;;;;;;2.55;0.95;;;;;;;;;;5097816;28;20211;-67
2023/12/24 14:26:29;;;;;;;2.90;1.20;;;;;;;;;;5097868;28;20199;-67
2023/12/24 14:28:56;;;;;;;3.85;1.33;;;;;;;;;;5098435;28;20679;-65
2023/12/24 14:31:23;;;;;;;3.00;1.05;;;;;;;;;;5091092;28;20207;-67
2023/12/24 14:33:50;;;;;;;1.42;0.90;;;;;;;;;;5097985;28;20204;-67
2023/12/24 14:36:19;;;;;;;2.00;0.95;;;;;;;;;;5098183;28;20227;-67
2023/12/24 14:38:47;;;;;;;1.50;0.90;;;;;;;;;;5098336;28;20214;-67
2023/12/24 14:41:14;;;;;;;2.22;0.95;;;;;;;;;;5098406;28;20489;-68
2023/12/24 14:43:42;;;;;;;1.90;0.90;;;;;;;;;;5097703;28;20214;-67
2023/12/24 14:46:09;;;;;;;2.03;1.00;;;;;;;;;;5098697;28;20199;-65
2023/12/24 14:48:36;;;;;;;1.25;0.80;;;;;;;;;;5098087;28;20214;-65